createdAt,value
2019-03-12T00:00:11.815Z,3.20
2019-03-12T00:01:11.807Z,3.21
2019-03-12T00:02:11.797Z,3.13
2019-03-12T00:03:11.785Z,3.16
2019-03-12T00:04:11.802Z,3.27
2019-03-12T00:05:11.771Z,3.18
2019-03-12T00:06:11.754Z,3.20
2019-03-12T00:07:11.754Z,3.24
2019-03-12T00:08:11.731Z,3.23
2019-03-12T00:09:11.740Z,3.31
2019-03-12T00:10:11.707Z,3.20
2019-03-12T00:11:11.701Z,3.28
2019-03-12T00:12:11.694Z,3.28
2019-03-12T00:13:11.685Z,3.23
2019-03-12T00:14:11.683Z,3.25
2019-03-12T00:15:11.653Z,3.25
2019-03-12T00:16:11.643Z,3.27
2019-03-12T00:17:11.663Z,3.18
2019-03-12T00:18:11.627Z,3.28
2019-03-12T00:19:11.638Z,3.31
2019-03-12T00:20:11.598Z,3.25
2019-03-12T00:21:11.605Z,3.25
2019-03-12T00:22:11.609Z,3.23
2019-03-12T00:23:11.579Z,3.28
2019-03-12T00:24:11.574Z,3.20
2019-03-12T00:25:11.546Z,3.24
2019-03-12T00:26:11.533Z,3.24
2019-03-12T00:27:11.520Z,3.23
2019-03-12T00:28:11.512Z,3.30
2019-03-12T00:29:11.519Z,3.25
2019-03-12T00:30:11.487Z,3.23
2019-03-12T00:31:11.495Z,3.25
2019-03-12T00:32:11.466Z,3.25
2019-03-12T00:33:11.454Z,3.21
2019-03-12T00:34:11.470Z,3.28
2019-03-12T00:35:11.446Z,3.24
2019-03-12T00:36:11.423Z,3.27
2019-03-12T00:37:11.410Z,3.27
2019-03-12T00:38:11.401Z,3.25
2019-03-12T00:39:11.386Z,3.28
2019-03-12T00:40:11.410Z,3.25
2019-03-12T00:41:11.374Z,3.24
2019-03-12T00:42:11.356Z,3.25
2019-03-12T00:43:11.346Z,3.20
2019-03-12T00:44:11.337Z,3.23
2019-03-12T00:45:11.346Z,3.27
2019-03-12T00:46:11.314Z,3.30
2019-03-12T00:47:11.302Z,3.25
2019-03-12T00:48:11.293Z,3.30
2019-03-12T00:49:11.297Z,3.25
2019-03-12T00:50:11.291Z,3.27
2019-03-12T00:51:11.258Z,3.16
2019-03-12T00:52:11.247Z,3.18
2019-03-12T00:53:11.238Z,3.23
2019-03-12T00:54:11.227Z,3.31
2019-03-12T00:55:11.240Z,3.16
2019-03-12T00:56:11.211Z,3.15
2019-03-12T00:57:11.210Z,3.20
2019-03-12T00:58:11.206Z,3.21
2019-03-12T00:59:11.178Z,3.23
2019-03-12T01:00:11.199Z,3.16
2019-03-12T01:01:11.150Z,3.07
2019-03-12T01:02:11.141Z,3.12
2019-03-12T01:03:11.130Z,3.10
2019-03-12T01:04:11.214Z,3.18
2019-03-12T01:05:11.111Z,3.10
2019-03-12T01:06:11.119Z,3.15
2019-03-12T01:07:11.100Z,3.02
2019-03-12T01:08:11.076Z,3.15
2019-03-12T01:09:11.067Z,3.06
2019-03-12T01:10:11.052Z,3.03
2019-03-12T01:11:11.057Z,3.07
2019-03-12T01:12:11.034Z,3.03
2019-03-12T01:13:11.024Z,2.92
2019-03-12T01:14:11.019Z,2.98
2019-03-12T01:15:11.007Z,2.94
2019-03-12T01:16:11.018Z,3.00
2019-03-12T01:17:10.993Z,3.03
2019-03-12T01:18:13.661Z,3.03
2019-03-12T01:19:10.954Z,2.92
2019-03-12T01:20:10.970Z,2.91
2019-03-12T01:21:11.012Z,2.92
2019-03-12T01:22:10.933Z,2.91
2019-03-12T01:23:10.912Z,3.02
2019-03-12T01:24:10.900Z,2.95
2019-03-12T01:25:10.890Z,3.07
2019-03-12T01:26:10.915Z,3.03
2019-03-12T01:27:10.874Z,3.12
2019-03-12T01:28:10.863Z,3.13
2019-03-12T01:29:10.865Z,3.16
2019-03-12T01:30:10.838Z,3.10
2019-03-12T01:31:10.850Z,3.10
2019-03-12T01:32:10.834Z,3.09
2019-03-12T01:33:10.808Z,3.12
2019-03-12T01:34:10.800Z,3.06
2019-03-12T01:35:10.784Z,3.09
2019-03-12T01:36:10.779Z,3.12
2019-03-12T01:37:10.793Z,3.13
2019-03-12T01:38:18.308Z,3.06
2019-03-12T01:39:10.761Z,3.05
2019-03-12T01:40:18.319Z,3.13
2019-03-12T01:41:10.731Z,3.05
2019-03-12T01:42:10.732Z,3.15
2019-03-12T01:43:10.700Z,3.07
2019-03-12T01:44:10.687Z,3.02
2019-03-12T01:45:10.677Z,3.10
2019-03-12T01:46:10.666Z,2.94
2019-03-12T01:47:10.684Z,3.06
2019-03-12T01:48:10.658Z,3.07
2019-03-12T01:49:10.638Z,3.09
2019-03-12T01:50:10.651Z,3.07
2019-03-12T01:51:10.615Z,3.00
2019-03-12T01:52:10.644Z,3.03
2019-03-12T01:53:10.599Z,3.07
2019-03-12T01:54:10.580Z,3.05
2019-03-12T01:55:10.569Z,3.05
2019-03-12T01:56:10.561Z,3.03
2019-03-12T01:57:10.549Z,2.97
2019-03-12T01:58:10.561Z,3.05
2019-03-12T01:59:10.525Z,2.97
2019-03-12T02:00:10.517Z,2.97
2019-03-12T02:01:10.503Z,2.91
2019-03-12T02:02:10.497Z,2.91
2019-03-12T02:03:10.502Z,3.06
2019-03-12T02:04:10.472Z,3.06
2019-03-12T02:05:10.459Z,3.03
2019-03-12T02:06:10.457Z,2.98
2019-03-12T02:07:10.438Z,3.02
2019-03-12T02:08:10.443Z,3.05
2019-03-12T02:09:10.420Z,2.92
2019-03-12T02:10:10.405Z,3.03
2019-03-12T02:11:10.395Z,2.95
2019-03-12T02:12:10.383Z,3.05
2019-03-12T02:13:10.394Z,2.91
2019-03-12T02:14:10.360Z,2.92
2019-03-12T02:15:10.362Z,3.05
2019-03-12T02:16:10.339Z,2.81
2019-03-12T02:17:10.350Z,3.00
2019-03-12T02:18:10.338Z,2.97
2019-03-12T02:19:10.311Z,2.94
2019-03-12T02:20:10.301Z,2.98
2019-03-12T02:21:10.286Z,2.88
2019-03-12T02:22:10.277Z,2.94
2019-03-12T02:23:10.310Z,2.95
2019-03-12T02:24:10.261Z,2.94
2019-03-12T02:25:10.245Z,2.87
2019-03-12T02:26:10.230Z,2.84
2019-03-12T02:27:10.219Z,2.85
2019-03-12T02:28:10.217Z,2.91
2019-03-12T02:29:10.234Z,2.95
2019-03-12T02:30:10.190Z,2.94
2019-03-12T02:31:10.183Z,2.92
2019-03-12T02:32:10.170Z,2.87
2019-03-12T02:33:10.165Z,2.82
2019-03-12T02:34:10.167Z,2.92
2019-03-12T02:35:10.139Z,2.81
2019-03-12T02:36:10.123Z,2.77
2019-03-12T02:37:10.117Z,2.79
2019-03-12T02:38:10.111Z,2.79
2019-03-12T02:39:10.113Z,2.82
2019-03-12T02:40:10.082Z,2.73
2019-03-12T02:41:10.075Z,2.76
2019-03-12T02:42:12.648Z,2.73
2019-03-12T02:43:10.061Z,2.69
2019-03-12T02:44:10.064Z,2.73
2019-03-12T02:45:10.025Z,2.70
2019-03-12T02:46:10.018Z,2.71
2019-03-12T02:47:10.021Z,2.76
2019-03-12T02:48:09.996Z,2.70
2019-03-12T02:49:10.361Z,2.77
2019-03-12T02:50:10.003Z,2.64
2019-03-12T02:51:09.974Z,2.61
2019-03-12T02:52:09.961Z,2.64
2019-03-12T02:53:09.985Z,2.49
2019-03-12T02:54:09.931Z,2.55
2019-03-12T02:55:09.992Z,2.53
2019-03-12T02:56:09.916Z,2.52
2019-03-12T02:57:09.919Z,2.49
2019-03-12T02:58:09.892Z,2.55
2019-03-12T02:59:09.876Z,2.44
2019-03-12T03:00:09.904Z,2.45
2019-03-12T03:01:09.853Z,2.45
2019-03-12T03:02:09.870Z,2.45
2019-03-12T03:03:09.829Z,2.41
2019-03-12T03:04:09.824Z,2.40
2019-03-12T03:05:09.827Z,2.41
2019-03-12T03:06:09.827Z,2.44
2019-03-12T03:07:09.801Z,2.35
2019-03-12T03:08:09.781Z,2.38
2019-03-12T03:09:09.765Z,2.35
2019-03-12T03:10:09.761Z,2.35
2019-03-12T03:11:09.784Z,2.23
2019-03-12T03:12:09.739Z,2.26
2019-03-12T03:13:09.724Z,2.34
2019-03-12T03:14:09.727Z,2.33
2019-03-12T03:15:09.708Z,2.28
2019-03-12T03:16:09.709Z,2.30
2019-03-12T03:17:09.684Z,2.35
2019-03-12T03:18:09.723Z,2.30
2019-03-12T03:19:09.666Z,2.33
2019-03-12T03:20:09.651Z,2.30
2019-03-12T03:21:09.662Z,2.28
2019-03-12T03:22:09.643Z,2.27
2019-03-12T03:23:09.629Z,2.31
2019-03-12T03:24:09.612Z,2.30
2019-03-12T03:25:09.603Z,2.35
2019-03-12T03:26:09.616Z,2.27
2019-03-12T03:27:09.613Z,2.33
2019-03-12T03:28:09.579Z,2.33
2019-03-12T03:29:09.557Z,2.27
2019-03-12T03:30:09.555Z,2.27
2019-03-12T03:31:09.558Z,2.23
2019-03-12T03:32:09.549Z,2.22
2019-03-12T03:33:09.552Z,2.19
2019-03-12T03:34:09.533Z,2.22
2019-03-12T03:35:09.514Z,2.10
2019-03-12T03:36:09.522Z,2.15
2019-03-12T03:37:09.544Z,2.19
2019-03-12T03:38:09.472Z,2.13
2019-03-12T03:39:09.460Z,2.10
2019-03-12T03:40:09.453Z,2.17
2019-03-12T03:41:09.432Z,2.08
2019-03-12T03:42:09.452Z,2.09
2019-03-12T03:43:09.410Z,2.06
2019-03-12T03:44:09.405Z,2.06
2019-03-12T03:45:09.396Z,1.99
2019-03-12T03:46:09.392Z,2.10
2019-03-12T03:47:09.366Z,2.02
2019-03-12T03:48:09.421Z,2.12
2019-03-12T03:49:09.351Z,2.08
2019-03-12T03:50:09.373Z,2.02
2019-03-12T03:51:09.327Z,2.01
2019-03-12T03:52:09.315Z,2.08
2019-03-12T03:53:09.324Z,2.01
2019-03-12T03:54:09.292Z,2.09
2019-03-12T03:55:09.298Z,2.02
2019-03-12T03:56:09.285Z,1.99
2019-03-12T03:57:09.314Z,2.02
2019-03-12T03:58:09.256Z,2.10
2019-03-12T03:59:09.246Z,2.08
2019-03-12T04:00:09.230Z,2.01
2019-03-12T04:01:09.221Z,2.12
2019-03-12T04:02:09.206Z,2.01
2019-03-12T04:03:09.232Z,2.09
2019-03-12T04:04:09.198Z,2.15
2019-03-12T04:05:09.182Z,2.09
2019-03-12T04:06:09.173Z,1.98
2019-03-12T04:07:09.159Z,1.98
2019-03-12T04:08:09.176Z,2.02
2019-03-12T04:09:09.132Z,2.01
2019-03-12T04:10:09.154Z,2.04
2019-03-12T04:11:09.116Z,1.98
2019-03-12T04:12:09.104Z,2.08
2019-03-12T04:13:09.116Z,2.02
2019-03-12T04:14:09.154Z,2.09
2019-03-12T04:15:09.071Z,2.09
2019-03-12T04:16:09.065Z,2.04
2019-03-12T04:17:09.108Z,2.10
2019-03-12T04:18:09.108Z,2.02
2019-03-12T04:19:09.041Z,2.08
2019-03-12T04:20:09.041Z,2.06
2019-03-12T04:21:09.009Z,2.16
2019-03-12T04:22:09.003Z,2.22
2019-03-12T04:23:09.009Z,2.17
2019-03-12T04:24:08.981Z,2.15
2019-03-12T04:25:08.979Z,2.19
2019-03-12T04:26:08.965Z,2.22
2019-03-12T04:27:08.950Z,2.28
2019-03-12T04:28:08.973Z,2.17
2019-03-12T04:29:08.922Z,2.28
2019-03-12T04:30:08.916Z,2.30
2019-03-12T04:31:08.973Z,2.28
2019-03-12T04:32:08.910Z,2.30
2019-03-12T04:33:08.913Z,2.28
2019-03-12T04:34:08.874Z,2.35
2019-03-12T04:35:08.873Z,2.30
2019-03-12T04:36:08.871Z,2.34
2019-03-12T04:37:08.851Z,2.30
2019-03-12T04:38:08.883Z,2.30
2019-03-12T04:39:08.817Z,2.38
2019-03-12T04:40:08.810Z,2.40
2019-03-12T04:41:08.796Z,2.38
2019-03-12T04:42:08.795Z,2.41
2019-03-12T04:43:08.791Z,2.49
2019-03-12T04:44:08.761Z,2.45
2019-03-12T04:45:08.776Z,2.55
2019-03-12T04:46:08.742Z,2.56
2019-03-12T04:47:08.745Z,2.49
2019-03-12T04:48:08.739Z,2.52
2019-03-12T04:49:08.708Z,2.51
2019-03-12T04:50:08.701Z,2.51
2019-03-12T04:51:08.688Z,2.52
2019-03-12T04:52:08.692Z,2.70
2019-03-12T04:53:08.688Z,2.64
2019-03-12T04:54:08.655Z,2.63
2019-03-12T04:55:08.644Z,2.66
2019-03-12T04:56:08.652Z,2.63
2019-03-12T04:57:08.622Z,2.63
2019-03-12T04:58:08.612Z,2.69
2019-03-12T04:59:08.624Z,2.63
2019-03-12T05:00:08.591Z,2.61
2019-03-12T05:01:08.588Z,2.61
2019-03-12T05:02:08.570Z,2.59
2019-03-12T05:03:08.559Z,2.69
2019-03-12T05:04:08.568Z,2.61
2019-03-12T05:05:08.546Z,2.70
2019-03-12T05:06:08.532Z,2.71
2019-03-12T05:07:08.533Z,2.63
2019-03-12T05:08:08.505Z,2.67
2019-03-12T05:09:08.519Z,2.74
2019-03-12T05:10:08.501Z,2.71
2019-03-12T05:11:08.475Z,2.71
2019-03-12T05:12:08.463Z,2.67
2019-03-12T05:13:08.451Z,2.70
2019-03-12T05:14:08.453Z,2.70
2019-03-12T05:15:08.462Z,2.69
2019-03-12T05:16:08.422Z,2.76
2019-03-12T05:17:08.408Z,2.76
2019-03-12T05:18:08.403Z,2.76
2019-03-12T05:19:08.412Z,2.77
2019-03-12T05:20:08.426Z,2.87
2019-03-12T05:21:08.366Z,2.84
2019-03-12T05:22:08.358Z,2.92
2019-03-12T05:23:08.362Z,2.89
2019-03-12T05:24:08.334Z,2.84
2019-03-12T05:25:08.346Z,2.81
2019-03-12T05:26:08.313Z,2.94
2019-03-12T05:27:08.302Z,2.92
2019-03-12T05:28:08.302Z,2.84
2019-03-12T05:29:08.285Z,2.89
2019-03-12T05:30:08.732Z,3.06
2019-03-12T05:31:08.259Z,3.09
2019-03-12T05:32:08.259Z,3.13
2019-03-12T05:33:08.247Z,3.13
2019-03-12T05:34:08.225Z,3.13
2019-03-12T05:35:08.232Z,3.13
2019-03-12T05:36:08.232Z,3.21
2019-03-12T05:37:08.211Z,3.18
2019-03-12T05:38:08.189Z,3.21
2019-03-12T05:39:08.172Z,3.12
2019-03-12T05:40:08.173Z,3.18
2019-03-12T05:41:08.168Z,3.15
2019-03-12T05:42:08.153Z,3.05
2019-03-12T05:43:08.126Z,3.16
2019-03-12T05:44:08.116Z,3.21
2019-03-12T05:45:08.106Z,3.18
2019-03-12T05:46:08.129Z,3.16
2019-03-12T05:47:08.443Z,3.18
2019-03-12T05:48:08.079Z,3.13
2019-03-12T05:49:08.061Z,3.25
2019-03-12T05:50:08.059Z,3.20
2019-03-12T05:51:08.070Z,3.20
2019-03-12T05:52:08.033Z,3.18
2019-03-12T05:53:08.018Z,3.18
2019-03-12T05:54:08.006Z,3.20
2019-03-12T05:55:08.013Z,3.23
2019-03-12T05:56:08.009Z,3.23
2019-03-12T05:57:07.977Z,3.20
2019-03-12T05:58:07.964Z,3.23
2019-03-12T05:59:07.952Z,3.15
2019-03-12T06:00:07.953Z,3.27
2019-03-12T06:01:07.932Z,3.30
2019-03-12T06:02:07.948Z,3.21
2019-03-12T06:03:07.914Z,3.21
2019-03-12T06:04:07.903Z,3.25
2019-03-12T06:05:07.886Z,3.30
2019-03-12T06:06:15.444Z,3.33
2019-03-12T06:07:07.887Z,3.28
2019-03-12T06:08:07.857Z,3.36
2019-03-12T06:09:07.842Z,3.36
2019-03-12T06:10:07.931Z,3.39
2019-03-12T06:11:07.822Z,3.42
2019-03-12T06:12:07.830Z,3.30
2019-03-12T06:13:07.810Z,3.43
2019-03-12T06:14:07.793Z,3.44
2019-03-12T06:15:07.781Z,3.43
2019-03-12T06:16:07.768Z,3.33
2019-03-12T06:17:07.777Z,3.46
2019-03-12T06:18:07.759Z,3.39
2019-03-12T06:19:07.735Z,3.49
2019-03-12T06:20:07.771Z,3.58
2019-03-12T06:21:07.714Z,3.52
2019-03-12T06:22:07.732Z,3.58
2019-03-12T06:23:07.695Z,3.52
2019-03-12T06:24:07.681Z,3.49
2019-03-12T06:25:07.671Z,3.54
2019-03-12T06:26:07.660Z,3.62
2019-03-12T06:27:07.677Z,3.65
2019-03-12T06:28:07.636Z,3.65
2019-03-12T06:29:07.626Z,3.67
2019-03-12T06:30:07.616Z,3.76
2019-03-12T06:31:07.635Z,3.68
2019-03-12T06:32:07.613Z,3.76
2019-03-12T06:33:07.585Z,3.80
2019-03-12T06:34:07.571Z,3.76
2019-03-12T06:35:07.561Z,3.78
2019-03-12T06:36:07.562Z,3.85
2019-03-12T06:37:07.555Z,3.83
2019-03-12T06:38:07.530Z,3.79
2019-03-12T06:39:07.517Z,3.82
2019-03-12T06:40:07.515Z,3.82
2019-03-12T06:41:07.496Z,3.83
2019-03-12T06:42:08.088Z,3.97
2019-03-12T06:43:07.474Z,3.82
2019-03-12T06:44:07.464Z,3.86
2019-03-12T06:45:07.472Z,3.83
2019-03-12T06:46:07.446Z,3.94
2019-03-12T06:47:07.452Z,3.97
2019-03-12T06:48:07.423Z,3.97
2019-03-12T06:49:07.422Z,3.96
2019-03-12T06:50:07.399Z,4.01
2019-03-12T06:51:07.391Z,4.03
2019-03-12T06:52:07.378Z,4.00
2019-03-12T06:53:07.387Z,4.10
2019-03-12T06:54:07.363Z,4.08
2019-03-12T06:55:07.350Z,4.10
2019-03-12T06:56:07.339Z,4.10
2019-03-12T06:57:07.323Z,4.10
2019-03-12T06:58:07.338Z,4.10
2019-03-12T06:59:07.300Z,4.14
2019-03-12T07:00:07.297Z,4.16
2019-03-12T07:01:08.291Z,4.19
2019-03-12T07:02:07.267Z,4.19
2019-03-12T07:03:07.284Z,4.16
2019-03-12T07:04:07.244Z,4.19
2019-03-12T07:05:07.234Z,4.26
2019-03-12T07:06:07.224Z,4.21
2019-03-12T07:07:11.266Z,4.16
2019-03-12T07:08:08.221Z,4.28
2019-03-12T07:09:07.194Z,4.36
2019-03-12T07:10:07.182Z,4.25
2019-03-12T07:11:07.170Z,4.26
2019-03-12T07:12:07.174Z,4.32
2019-03-12T07:13:07.172Z,4.34
2019-03-12T07:14:07.138Z,4.29
2019-03-12T07:15:07.129Z,4.32
2019-03-12T07:16:07.125Z,4.36
2019-03-12T07:17:07.104Z,4.37
2019-03-12T07:18:07.117Z,4.37
2019-03-12T07:19:07.084Z,4.36
2019-03-12T07:20:07.073Z,4.36
2019-03-12T07:21:07.080Z,4.43
2019-03-12T07:22:07.051Z,4.37
2019-03-12T07:23:07.062Z,4.42
2019-03-12T07:24:07.030Z,4.51
2019-03-12T07:25:07.027Z,4.43
2019-03-12T07:26:07.011Z,4.55
2019-03-12T07:27:06.997Z,4.50
2019-03-12T07:28:07.007Z,4.51
2019-03-12T07:29:06.975Z,4.54
2019-03-12T07:30:06.977Z,4.54
2019-03-12T07:31:07.042Z,4.57
2019-03-12T07:32:06.942Z,4.58
2019-03-12T07:33:06.974Z,4.58
2019-03-12T07:34:06.932Z,4.65
2019-03-12T07:35:06.909Z,4.62
2019-03-12T07:36:06.900Z,4.69
2019-03-12T07:37:06.886Z,4.69
2019-03-12T07:38:06.881Z,4.70
2019-03-12T07:39:06.895Z,4.77
2019-03-12T07:40:06.856Z,4.75
2019-03-12T07:41:06.850Z,4.72
2019-03-12T07:42:06.843Z,4.73
2019-03-12T07:43:06.831Z,4.77
2019-03-12T07:44:06.842Z,4.79
2019-03-12T07:45:06.811Z,4.80
2019-03-12T07:46:06.793Z,4.86
2019-03-12T07:47:06.786Z,4.99
2019-03-12T07:48:06.794Z,4.94
2019-03-12T07:49:06.785Z,4.98
2019-03-12T07:50:06.757Z,5.02
2019-03-12T07:51:06.737Z,4.95
2019-03-12T07:52:08.709Z,4.98
2019-03-12T07:53:06.729Z,5.07
2019-03-12T07:54:06.734Z,5.13
2019-03-12T07:55:06.695Z,5.09
2019-03-12T07:56:06.683Z,5.10
2019-03-12T07:57:06.678Z,4.96
2019-03-12T07:58:06.663Z,5.02
2019-03-12T07:59:09.001Z,5.14
2019-03-12T08:00:09.820Z,5.16
2019-03-12T08:01:06.633Z,5.16
2019-03-12T08:02:06.622Z,5.17
2019-03-12T08:03:06.619Z,5.19
2019-03-12T08:04:06.600Z,5.20
2019-03-12T08:05:06.614Z,5.27
2019-03-12T08:06:06.576Z,5.31
2019-03-12T08:07:06.569Z,5.37
2019-03-12T08:08:06.558Z,5.27
2019-03-12T08:09:06.560Z,5.43
2019-03-12T08:10:06.567Z,5.41
2019-03-12T08:11:06.525Z,5.45
2019-03-12T08:12:06.521Z,5.56
2019-03-12T08:13:06.525Z,5.53
2019-03-12T08:14:06.503Z,5.63
2019-03-12T08:15:06.509Z,5.67
2019-03-12T08:16:06.483Z,5.60
2019-03-12T08:17:06.470Z,5.63
2019-03-12T08:18:06.505Z,5.57
2019-03-12T08:19:06.443Z,5.63
2019-03-12T08:20:06.460Z,5.67
2019-03-12T08:21:06.419Z,5.59
2019-03-12T08:22:06.421Z,5.63
2019-03-12T08:23:06.403Z,5.63
2019-03-12T08:24:06.391Z,5.70
2019-03-12T08:25:06.395Z,5.70
2019-03-12T08:26:06.383Z,5.74
2019-03-12T08:27:06.391Z,5.68
2019-03-12T08:28:06.344Z,5.81
2019-03-12T08:29:06.334Z,5.81
2019-03-12T08:30:06.325Z,5.92
2019-03-12T08:31:06.346Z,5.77
2019-03-12T08:32:06.303Z,5.81
2019-03-12T08:33:06.292Z,5.82
2019-03-12T08:34:06.279Z,5.82
2019-03-12T08:35:06.271Z,5.85
2019-03-12T08:36:06.293Z,5.86
2019-03-12T08:37:06.251Z,5.93
2019-03-12T08:38:06.238Z,6.00
2019-03-12T08:39:06.231Z,5.92
2019-03-12T08:40:06.228Z,6.06
2019-03-12T08:41:06.234Z,5.93
2019-03-12T08:42:06.195Z,5.88
2019-03-12T08:43:06.184Z,5.98
2019-03-12T08:44:06.178Z,5.95
2019-03-12T08:45:06.222Z,5.92
2019-03-12T08:46:06.185Z,6.01
2019-03-12T08:47:06.151Z,6.09
2019-03-12T08:48:06.134Z,6.03
2019-03-12T08:49:06.136Z,6.03
2019-03-12T08:50:06.110Z,6.13
2019-03-12T08:51:06.135Z,6.13
2019-03-12T08:52:06.093Z,6.16
2019-03-12T08:53:06.086Z,6.22
2019-03-12T08:54:06.087Z,6.13
2019-03-12T08:55:06.058Z,6.21
2019-03-12T08:56:06.052Z,6.11
2019-03-12T08:57:06.077Z,6.16
2019-03-12T08:58:06.035Z,6.21
2019-03-12T08:59:06.015Z,6.19
2019-03-12T09:00:06.008Z,6.25
2019-03-12T09:01:05.998Z,6.43
2019-03-12T09:02:06.009Z,6.28
2019-03-12T09:03:05.991Z,6.35
2019-03-12T09:04:05.962Z,6.29
2019-03-12T09:05:05.958Z,6.40
2019-03-12T09:06:05.967Z,6.43
2019-03-12T09:07:05.946Z,6.51
2019-03-12T09:08:05.926Z,6.43
2019-03-12T09:09:05.916Z,6.59
2019-03-12T09:10:05.903Z,6.59
2019-03-12T09:11:05.894Z,6.66
2019-03-12T09:12:05.914Z,6.59
2019-03-12T09:13:05.872Z,6.76
2019-03-12T09:14:05.859Z,6.72
2019-03-12T09:15:05.859Z,6.76
2019-03-12T09:16:05.838Z,6.80
2019-03-12T09:17:05.865Z,6.81
2019-03-12T09:18:05.823Z,6.87
2019-03-12T09:19:05.807Z,6.86
2019-03-12T09:20:05.804Z,6.86
2019-03-12T09:21:05.786Z,6.98
2019-03-12T09:22:05.793Z,6.94
2019-03-12T09:23:05.768Z,6.90
2019-03-12T09:24:05.764Z,6.90
2019-03-12T09:25:05.743Z,6.90
2019-03-12T09:26:05.732Z,6.95
2019-03-12T09:27:05.749Z,6.91
2019-03-12T09:28:05.734Z,6.99
2019-03-12T09:29:05.707Z,7.01
2019-03-12T09:30:05.695Z,6.98
2019-03-12T09:31:05.680Z,6.99
2019-03-12T09:32:05.715Z,7.04
2019-03-12T09:33:05.669Z,7.05
2019-03-12T09:34:05.649Z,7.05
2019-03-12T09:35:05.634Z,7.07
2019-03-12T09:36:05.627Z,7.13
2019-03-12T09:37:05.632Z,7.08
2019-03-12T09:38:05.630Z,7.09
2019-03-12T09:39:05.596Z,7.07
2019-03-12T09:40:05.669Z,6.99
2019-03-12T09:41:05.582Z,7.05
2019-03-12T09:42:05.571Z,7.04
2019-03-12T09:43:05.572Z,7.13
2019-03-12T09:44:05.536Z,6.98
2019-03-12T09:45:05.539Z,7.02
2019-03-12T09:46:05.527Z,6.98
2019-03-12T09:47:05.506Z,6.98
2019-03-12T09:48:05.519Z,6.95
2019-03-12T09:49:05.485Z,6.98
2019-03-12T09:50:05.477Z,7.02
2019-03-12T09:51:05.485Z,7.04
2019-03-12T09:52:05.454Z,7.08
2019-03-12T09:53:05.471Z,7.05
2019-03-12T09:54:05.436Z,7.09
2019-03-12T09:55:05.436Z,7.09
2019-03-12T09:56:05.434Z,7.05
2019-03-12T09:57:05.400Z,7.05
2019-03-12T09:58:05.389Z,7.09
2019-03-12T09:59:05.404Z,7.13
2019-03-12T10:00:15.555Z,7.15
2019-03-12T10:01:06.363Z,7.20
2019-03-12T10:02:05.347Z,7.15
2019-03-12T10:03:05.338Z,7.20
2019-03-12T10:04:05.367Z,7.20
2019-03-12T10:05:05.337Z,7.24
2019-03-12T10:06:05.308Z,7.22
2019-03-12T10:07:05.300Z,7.23
2019-03-12T10:08:05.288Z,7.17
2019-03-12T10:09:05.298Z,7.29
2019-03-12T10:10:05.269Z,7.19
2019-03-12T10:11:05.256Z,7.26
2019-03-12T10:12:05.259Z,7.27
2019-03-12T10:13:05.264Z,7.15
2019-03-12T10:14:05.251Z,7.17
2019-03-12T10:15:05.390Z,7.19
2019-03-12T10:16:05.220Z,7.22
2019-03-12T10:17:05.192Z,7.23
2019-03-12T10:18:05.176Z,7.34
2019-03-12T10:19:05.204Z,7.32
2019-03-12T10:20:05.154Z,7.26
2019-03-12T10:21:05.144Z,7.35
2019-03-12T10:22:05.133Z,7.27
2019-03-12T10:23:05.133Z,7.22
2019-03-12T10:24:05.122Z,7.42
2019-03-12T10:25:05.123Z,7.31
2019-03-12T10:26:05.092Z,7.26
2019-03-12T10:27:05.081Z,7.31
2019-03-12T10:28:05.093Z,7.41
2019-03-12T10:29:05.059Z,7.29
2019-03-12T10:30:05.072Z,7.29
2019-03-12T10:31:05.040Z,7.27
2019-03-12T10:32:05.030Z,7.40
2019-03-12T10:33:05.026Z,7.42
2019-03-12T10:34:05.007Z,7.45
2019-03-12T10:35:05.017Z,7.37
2019-03-12T10:36:05.074Z,7.42
2019-03-12T10:37:11.842Z,7.47
2019-03-12T10:38:05.968Z,7.47
2019-03-12T10:39:04.954Z,7.53
2019-03-12T10:40:04.967Z,7.47
2019-03-12T10:41:04.936Z,7.55
2019-03-12T10:42:04.933Z,7.60
2019-03-12T10:43:04.914Z,7.62
2019-03-12T10:44:04.899Z,7.63
2019-03-12T10:45:04.924Z,7.72
2019-03-12T10:46:04.889Z,7.72
2019-03-12T10:47:04.866Z,7.79
2019-03-12T10:48:04.862Z,7.81
2019-03-12T10:49:04.853Z,7.84
2019-03-12T10:50:04.841Z,7.84
2019-03-12T10:51:04.854Z,7.89
2019-03-12T10:52:04.815Z,7.90
2019-03-12T10:53:04.810Z,7.84
2019-03-12T10:54:04.794Z,7.94
2019-03-12T10:55:12.820Z,7.89
2019-03-12T10:56:05.798Z,7.97
2019-03-12T10:57:04.765Z,7.97
2019-03-12T10:58:04.754Z,7.99
2019-03-12T10:59:04.738Z,8.07
2019-03-12T11:00:04.736Z,8.10
2019-03-12T11:01:04.749Z,8.20
2019-03-12T11:02:04.711Z,8.22
2019-03-12T11:03:04.694Z,8.22
2019-03-12T11:04:04.699Z,8.22
2019-03-12T11:05:04.689Z,8.20
2019-03-12T11:06:04.688Z,8.28
2019-03-12T11:07:15.750Z,8.33
2019-03-12T11:08:06.954Z,8.44
2019-03-12T11:09:04.635Z,8.35
2019-03-12T11:10:04.623Z,8.39
2019-03-12T11:11:04.660Z,8.44
2019-03-12T11:12:04.601Z,8.54
2019-03-12T11:13:04.591Z,8.53
2019-03-12T11:14:04.591Z,8.54
2019-03-12T11:15:04.570Z,8.44
2019-03-12T11:16:04.575Z,8.45
2019-03-12T11:17:04.548Z,8.51
2019-03-12T11:18:04.536Z,8.63
2019-03-12T11:19:04.535Z,8.55
2019-03-12T11:20:04.517Z,8.58
2019-03-12T11:21:04.525Z,8.55
2019-03-12T11:22:04.499Z,8.55
2019-03-12T11:23:04.500Z,8.47
2019-03-12T11:24:04.474Z,8.58
2019-03-12T11:25:04.467Z,8.54
2019-03-12T11:26:04.476Z,8.63
2019-03-12T11:27:04.438Z,8.71
2019-03-12T11:28:04.429Z,8.55
2019-03-12T11:29:04.420Z,8.62
2019-03-12T11:30:04.413Z,8.63
2019-03-12T11:31:04.415Z,8.68
2019-03-12T11:32:04.405Z,8.62
2019-03-12T11:33:04.381Z,8.55
2019-03-12T11:34:04.454Z,8.66
2019-03-12T11:35:04.354Z,8.62
2019-03-12T11:36:04.372Z,8.73
2019-03-12T11:37:04.353Z,8.81
2019-03-12T11:38:04.357Z,8.78
2019-03-12T11:39:04.365Z,8.75
2019-03-12T11:40:04.297Z,8.83
2019-03-12T11:41:04.341Z,8.73
2019-03-12T11:42:04.303Z,8.87
2019-03-12T11:43:04.272Z,8.90
2019-03-12T11:44:04.261Z,8.78
2019-03-12T11:45:13.457Z,8.99
2019-03-12T11:46:05.259Z,8.93
2019-03-12T11:47:04.226Z,8.96
2019-03-12T11:48:04.213Z,8.97
2019-03-12T11:49:04.260Z,8.93
2019-03-12T11:50:04.220Z,9.04
2019-03-12T11:51:04.298Z,9.10
2019-03-12T11:52:04.175Z,9.05
2019-03-12T11:53:04.348Z,9.05
2019-03-12T11:54:04.194Z,9.06
2019-03-12T11:55:04.172Z,9.09
2019-03-12T11:56:04.154Z,9.04
2019-03-12T11:57:04.127Z,9.23
2019-03-12T11:58:04.116Z,9.18
2019-03-12T11:59:04.281Z,9.21
2019-03-12T12:00:04.121Z,9.31
2019-03-12T12:01:04.161Z,9.31
2019-03-12T12:02:04.062Z,9.24
2019-03-12T12:03:04.050Z,9.27
2019-03-12T12:04:04.040Z,9.28
2019-03-12T12:05:04.033Z,9.30
2019-03-12T12:06:04.304Z,9.28
2019-03-12T12:07:04.033Z,9.28
2019-03-12T12:08:04.062Z,9.24
2019-03-12T12:09:04.040Z,9.21
2019-03-12T12:10:04.062Z,9.21
2019-03-12T12:11:03.996Z,9.25
2019-03-12T12:12:03.953Z,9.25
2019-03-12T12:13:03.957Z,9.18
2019-03-12T12:14:03.934Z,9.27
2019-03-12T12:15:03.925Z,9.25
2019-03-12T12:16:03.956Z,9.28
2019-03-12T12:17:03.925Z,9.27
2019-03-12T12:18:03.905Z,9.28
2019-03-12T12:19:03.878Z,9.30
2019-03-12T12:20:03.869Z,9.35
2019-03-12T12:21:03.859Z,9.38
2019-03-12T12:22:03.878Z,9.43
2019-03-12T12:23:03.838Z,9.39
2019-03-12T12:24:03.828Z,9.40
2019-03-12T12:25:03.826Z,9.53
2019-03-12T12:26:03.809Z,9.52
2019-03-12T12:27:03.828Z,9.46
2019-03-12T12:28:03.786Z,9.50
2019-03-12T12:29:03.777Z,9.50
2019-03-12T12:30:03.762Z,9.45
2019-03-12T12:31:03.758Z,9.58
2019-03-12T12:32:03.766Z,9.53
2019-03-12T12:33:03.731Z,9.52
2019-03-12T12:34:03.716Z,9.50
2019-03-12T12:35:03.711Z,9.57
2019-03-12T12:36:03.704Z,9.57
2019-03-12T12:37:03.720Z,9.66
2019-03-12T12:38:03.681Z,9.52
2019-03-12T12:39:03.663Z,9.67
2019-03-12T12:40:03.660Z,9.61
2019-03-12T12:41:03.646Z,9.63
2019-03-12T12:42:03.654Z,9.63
2019-03-12T12:43:03.621Z,9.75
2019-03-12T12:44:03.619Z,9.78
2019-03-12T12:45:03.613Z,9.75
2019-03-12T12:46:03.587Z,9.75
2019-03-12T12:47:03.599Z,9.79
2019-03-12T12:48:03.570Z,9.79
2019-03-12T12:49:03.574Z,9.78
2019-03-12T12:50:03.553Z,9.75
2019-03-12T12:51:03.921Z,9.73
2019-03-12T12:52:03.546Z,9.64
2019-03-12T12:53:03.514Z,9.60
2019-03-12T12:54:03.503Z,9.63
2019-03-12T12:55:03.494Z,9.61
2019-03-12T12:56:03.482Z,9.58
2019-03-12T12:57:03.489Z,9.67
2019-03-12T12:58:03.462Z,9.60
2019-03-12T12:59:03.455Z,9.70
2019-03-12T13:00:03.444Z,9.79
2019-03-12T13:01:03.425Z,9.81
2019-03-12T13:02:04.373Z,9.78
2019-03-12T13:03:03.427Z,9.75
2019-03-12T13:04:03.397Z,9.73
2019-03-12T13:05:03.382Z,9.76
2019-03-12T13:06:03.374Z,9.81
2019-03-12T13:07:03.382Z,9.78
2019-03-12T13:08:03.360Z,9.85
2019-03-12T13:09:03.342Z,9.85
2019-03-12T13:10:03.329Z,9.88
2019-03-12T13:11:03.318Z,9.81
2019-03-12T13:12:03.329Z,9.81
2019-03-12T13:13:03.304Z,9.79
2019-03-12T13:14:03.294Z,9.78
2019-03-12T13:15:03.276Z,9.83
2019-03-12T13:16:03.266Z,9.81
2019-03-12T13:17:03.287Z,9.85
2019-03-12T13:18:03.244Z,9.75